sensor_id;sensor_type;location;lat;lon;timestamp;pressure;altitude;pressure_sealevel;temperature;humidity
11808;BME280;5961;42.640;23.380;2023-04-30T00:00:01;93751.72;;;13.06;75.02
11808;BME280;5961;42.640;23.380;2023-04-30T00:02:32;93759.38;;;13.07;75.43
11808;BME280;5961;42.640;23.380;2023-04-30T00:04:59;93753.22;;;13.03;74.85
11808;BME280;5961;42.640;23.380;2023-04-30T00:07:27;93758.06;;;12.98;74.38
11808;BME280;5961;42.640;23.380;2023-04-30T00:09:54;93761.44;;;12.95;74.24
11808;BME280;5961;42.640;23.380;2023-04-30T00:12:21;93761.38;;;12.91;74.59
11808;BME280;5961;42.640;23.380;2023-04-30T00:14:47;93753.44;;;12.76;75.37
11808;BME280;5961;42.640;23.380;2023-04-30T00:17:14;93755.84;;;12.81;75.69
11808;BME280;5961;42.640;23.380;2023-04-30T00:19:41;93753.44;;;12.76;75.53
11808;BME280;5961;42.640;23.380;2023-04-30T00:22:08;93751.91;;;12.75;75.73
11808;BME280;5961;42.640;23.380;2023-04-30T00:24:36;93748.06;;;12.72;75.05
11808;BME280;5961;42.640;23.380;2023-04-30T00:27:03;93751.22;;;12.78;74.75
11808;BME280;5961;42.640;23.380;2023-04-30T00:29:29;93747.69;;;12.74;75.69
11808;BME280;5961;42.640;23.380;2023-04-30T00:31:56;93750.22;;;12.66;75.49
11808;BME280;5961;42.640;23.380;2023-04-30T00:34:23;93752.97;;;12.70;75.08
11808;BME280;5961;42.640;23.380;2023-04-30T00:36:49;93762.44;;;12.68;74.88
11808;BME280;5961;42.640;23.380;2023-04-30T00:39:16;93762.44;;;12.68;75.12
11808;BME280;5961;42.640;23.380;2023-04-30T00:41:45;93764.09;;;12.76;74.56
11808;BME280;5961;42.640;23.380;2023-04-30T00:44:11;93756.09;;;12.76;74.66
11808;BME280;5961;42.640;23.380;2023-04-30T00:46:38;93752.31;;;12.77;75.31
11808;BME280;5961;42.640;23.380;2023-04-30T00:49:05;93748.53;;;12.78;75.60
11808;BME280;5961;42.640;23.380;2023-04-30T00:51:32;93741.31;;;12.78;76.62
11808;BME280;5961;42.640;23.380;2023-04-30T00:54:00;93754.44;;;12.87;76.45
11808;BME280;5961;42.640;23.380;2023-04-30T00:56:27;93748.81;;;12.92;77.04
11808;BME280;5961;42.640;23.380;2023-04-30T00:58:56;93729.81;;;12.74;77.18
11808;BME280;5961;42.640;23.380;2023-04-30T01:01:23;93746.84;;;12.89;76.96
11808;BME280;5961;42.640;23.380;2023-04-30T01:03:51;93749.28;;;12.97;76.91
11808;BME280;5961;42.640;23.380;2023-04-30T01:06:17;93732.81;;;12.92;76.84
11808;BME280;5961;42.640;23.380;2023-04-30T01:08:44;93748.66;;;13.04;76.31
11808;BME280;5961;42.640;23.380;2023-04-30T01:11:18;93752.50;;;13.06;76.42
11808;BME280;5961;42.640;23.380;2023-04-30T01:13:54;93762.91;;;12.92;75.54
11808;BME280;5961;42.640;23.380;2023-04-30T01:16:28;93748.50;;;12.97;75.35
11808;BME280;5961;42.640;23.380;2023-04-30T01:18:59;93755.81;;;13.00;74.78
11808;BME280;5961;42.640;23.380;2023-04-30T01:21:29;93743.78;;;12.87;72.85
11808;BME280;5961;42.640;23.380;2023-04-30T01:24:17;93760.03;;;12.82;71.92
11808;BME280;5961;42.640;23.380;2023-04-30T01:27:04;93750.91;;;12.63;71.96
11808;BME280;5961;42.640;23.380;2023-04-30T01:29:33;93754.94;;;12.54;72.28
11808;BME280;5961;42.640;23.380;2023-04-30T01:32:01;93744.19;;;12.31;72.90
11808;BME280;5961;42.640;23.380;2023-04-30T01:34:28;93747.13;;;12.26;73.54
11808;BME280;5961;42.640;23.380;2023-04-30T01:37:06;93743.81;;;12.14;74.38
11808;BME280;5961;42.640;23.380;2023-04-30T01:39:49;93745.28;;;12.11;74.17
11808;BME280;5961;42.640;23.380;2023-04-30T01:42:20;93745.47;;;12.02;74.53
11808;BME280;5961;42.640;23.380;2023-04-30T01:45:03;93746.75;;;12.08;74.74
11808;BME280;5961;42.640;23.380;2023-04-30T01:47:38;93754.47;;;12.14;75.68
11808;BME280;5961;42.640;23.380;2023-04-30T01:50:15;93743.91;;;12.17;76.17
11808;BME280;5961;42.640;23.380;2023-04-30T01:52:50;93745.69;;;12.13;74.77
11808;BME280;5961;42.640;23.380;2023-04-30T01:55:20;93741.44;;;12.08;74.12
11808;BME280;5961;42.640;23.380;2023-04-30T01:57:55;93747.44;;;12.05;73.72
11808;BME280;5961;42.640;23.380;2023-04-30T02:00:25;93741.19;;;11.98;73.93
11808;BME280;5961;42.640;23.380;2023-04-30T02:02:51;93735.84;;;11.98;74.08
11808;BME280;5961;42.640;23.380;2023-04-30T02:05:18;93740.19;;;11.87;74.80
11808;BME280;5961;42.640;23.380;2023-04-30T02:07:47;93745.66;;;11.94;74.60
11808;BME280;5961;42.640;23.380;2023-04-30T02:10:15;93746.34;;;11.91;74.86
11808;BME280;5961;42.640;23.380;2023-04-30T02:12:42;93738.63;;;11.86;75.01
11808;BME280;5961;42.640;23.380;2023-04-30T02:15:10;93745.75;;;11.82;75.37
11808;BME280;5961;42.640;23.380;2023-04-30T02:17:38;93739.16;;;11.76;75.99
11808;BME280;5961;42.640;23.380;2023-04-30T02:20:06;93743.88;;;11.82;76.32
11808;BME280;5961;42.640;23.380;2023-04-30T02:22:33;93742.00;;;11.83;77.00
11808;BME280;5961;42.640;23.380;2023-04-30T02:25:00;93742.94;;;11.75;76.29
11808;BME280;5961;42.640;23.380;2023-04-30T02:27:29;93746.44;;;11.79;76.33
11808;BME280;5961;42.640;23.380;2023-04-30T02:29:57;93739.31;;;11.67;76.94
11808;BME280;5961;42.640;23.380;2023-04-30T02:32:23;93743.34;;;11.61;77.58
11808;BME280;5961;42.640;23.380;2023-04-30T02:34:51;93744.50;;;11.60;77.99
11808;BME280;5961;42.640;23.380;2023-04-30T02:37:18;93700.19;;;11.36;78.46
11808;BME280;5961;42.640;23.380;2023-04-30T02:39:45;93733.75;;;11.56;78.97
11808;BME280;5961;42.640;23.380;2023-04-30T02:42:12;93731.44;;;11.55;78.73
11808;BME280;5961;42.640;23.380;2023-04-30T02:44:38;93741.47;;;11.62;78.53
11808;BME280;5961;42.640;23.380;2023-04-30T02:47:05;93737.94;;;11.57;78.50
11808;BME280;5961;42.640;23.380;2023-04-30T02:49:32;93719.25;;;11.38;78.20
11808;BME280;5961;42.640;23.380;2023-04-30T02:52:00;93737.63;;;11.59;77.89
11808;BME280;5961;42.640;23.380;2023-04-30T02:54:26;93699.50;;;11.39;77.47
11808;BME280;5961;42.640;23.380;2023-04-30T02:56:53;93741.19;;;11.67;76.45
11808;BME280;5961;42.640;23.380;2023-04-30T02:59:20;93746.97;;;11.69;75.62
11808;BME280;5961;42.640;23.380;2023-04-30T03:01:46;93749.88;;;11.64;74.87
11808;BME280;5961;42.640;23.380;2023-04-30T03:04:13;93746.63;;;11.54;74.69
11808;BME280;5961;42.640;23.380;2023-04-30T03:06:40;93762.16;;;11.52;75.37
11808;BME280;5961;42.640;23.380;2023-04-30T03:09:08;93753.75;;;11.50;74.75
11808;BME280;5961;42.640;23.380;2023-04-30T03:11:34;93757.53;;;11.49;74.79
11808;BME280;5961;42.640;23.380;2023-04-30T03:14:02;93753.41;;;11.36;74.73
11808;BME280;5961;42.640;23.380;2023-04-30T03:16:29;93748.75;;;11.33;74.91
11808;BME280;5961;42.640;23.380;2023-04-30T03:18:56;93761.38;;;11.36;75.39
11808;BME280;5961;42.640;23.380;2023-04-30T03:21:23;93759.56;;;11.25;75.54
11808;BME280;5961;42.640;23.380;2023-04-30T03:23:49;93765.75;;;11.29;75.70
11808;BME280;5961;42.640;23.380;2023-04-30T03:26:18;93765.59;;;11.22;75.88
11808;BME280;5961;42.640;23.380;2023-04-30T03:28:45;93760.09;;;11.15;75.92
11808;BME280;5961;42.640;23.380;2023-04-30T03:31:12;93758.34;;;11.07;76.57
11808;BME280;5961;42.640;23.380;2023-04-30T03:33:39;93754.06;;;11.02;76.79
11808;BME280;5961;42.640;23.380;2023-04-30T03:36:05;93767.09;;;11.07;77.19
11808;BME280;5961;42.640;23.380;2023-04-30T03:38:32;93766.44;;;11.10;77.56
11808;BME280;5961;42.640;23.380;2023-04-30T03:40:59;93768.81;;;11.15;77.48
11808;BME280;5961;42.640;23.380;2023-04-30T03:43:27;93770.47;;;11.20;77.25
11808;BME280;5961;42.640;23.380;2023-04-30T03:45:53;93769.09;;;11.10;76.82
11808;BME280;5961;42.640;23.380;2023-04-30T03:48:20;93773.97;;;11.08;76.78
11808;BME280;5961;42.640;23.380;2023-04-30T03:50:47;93778.63;;;11.11;76.80
11808;BME280;5961;42.640;23.380;2023-04-30T03:53:14;93779.41;;;11.12;77.12
11808;BME280;5961;42.640;23.380;2023-04-30T03:55:41;93782.47;;;11.14;76.86
11808;BME280;5961;42.640;23.380;2023-04-30T03:58:07;93779.09;;;11.01;76.54
11808;BME280;5961;42.640;23.380;2023-04-30T04:00:35;93791.13;;;11.11;76.92
11808;BME280;5961;42.640;23.380;2023-04-30T04:03:02;93791.28;;;11.02;76.91
11808;BME280;5961;42.640;23.380;2023-04-30T04:05:29;93787.50;;;11.03;76.92
11808;BME280;5961;42.640;23.380;2023-04-30T04:07:56;93791.19;;;10.98;77.39
11808;BME280;5961;42.640;23.380;2023-04-30T04:10:22;93783.47;;;10.93;78.58
11808;BME280;5961;42.640;23.380;2023-04-30T04:12:49;93769.72;;;10.91;78.07
11808;BME280;5961;42.640;23.380;2023-04-30T04:15:16;93793.69;;;11.07;77.84
11808;BME280;5961;42.640;23.380;2023-04-30T04:17:44;93795.53;;;11.19;77.95
11808;BME280;5961;42.640;23.380;2023-04-30T04:20:11;93791.16;;;11.26;78.12
11808;BME280;5961;42.640;23.380;2023-04-30T04:22:38;93801.38;;;11.40;77.42
11808;BME280;5961;42.640;23.380;2023-04-30T04:25:05;93802.78;;;11.49;77.08
11808;BME280;5961;42.640;23.380;2023-04-30T04:27:33;93803.28;;;11.55;76.98
11808;BME280;5961;42.640;23.380;2023-04-30T04:30:00;93809.66;;;11.66;76.69
11808;BME280;5961;42.640;23.380;2023-04-30T04:32:27;93808.38;;;11.76;76.68
11808;BME280;5961;42.640;23.380;2023-04-30T04:34:56;93810.78;;;11.81;76.25
11808;BME280;5961;42.640;23.380;2023-04-30T04:37:23;93805.63;;;11.88;76.58
11808;BME280;5961;42.640;23.380;2023-04-30T04:39:49;93810.53;;;11.86;76.10
11808;BME280;5961;42.640;23.380;2023-04-30T04:42:16;93812.50;;;11.89;76.62
11808;BME280;5961;42.640;23.380;2023-04-30T04:44:44;93811.81;;;11.92;75.94
11808;BME280;5961;42.640;23.380;2023-04-30T04:47:11;93814.19;;;11.97;75.65
11808;BME280;5961;42.640;23.380;2023-04-30T04:49:38;93821.94;;;12.02;75.71
11808;BME280;5961;42.640;23.380;2023-04-30T04:52:06;93820.13;;;12.06;75.66
11808;BME280;5961;42.640;23.380;2023-04-30T04:54:33;93820.13;;;12.06;76.33
11808;BME280;5961;42.640;23.380;2023-04-30T04:56:59;93823.63;;;12.10;76.20
11808;BME280;5961;42.640;23.380;2023-04-30T04:59:27;93822.63;;;12.15;76.23
11808;BME280;5961;42.640;23.380;2023-04-30T05:01:54;93831.34;;;12.15;75.76
11808;BME280;5961;42.640;23.380;2023-04-30T05:04:20;93824.06;;;12.12;76.42
11808;BME280;5961;42.640;23.380;2023-04-30T05:06:47;93831.22;;;12.08;76.68
11808;BME280;5961;42.640;23.380;2023-04-30T05:09:15;93832.31;;;12.07;77.04
11808;BME280;5961;42.640;23.380;2023-04-30T05:11:42;93828.47;;;12.04;77.55
11808;BME280;5961;42.640;23.380;2023-04-30T05:14:10;93827.00;;;12.07;77.08
11808;BME280;5961;42.640;23.380;2023-04-30T05:16:37;93831.63;;;12.10;77.63
11808;BME280;5961;42.640;23.380;2023-04-30T05:19:03;93833.59;;;12.13;77.96
11808;BME280;5961;42.640;23.380;2023-04-30T05:21:30;93834.47;;;12.17;78.19
11808;BME280;5961;42.640;23.380;2023-04-30T05:23:57;93834.47;;;12.17;78.20
11808;BME280;5961;42.640;23.380;2023-04-30T05:26:25;93823.53;;;12.22;77.86
11808;BME280;5961;42.640;23.380;2023-04-30T05:28:52;93826.28;;;12.26;77.57
11808;BME280;5961;42.640;23.380;2023-04-30T05:31:19;93828.34;;;12.32;77.63
11808;BME280;5961;42.640;23.380;2023-04-30T05:33:45;93829.63;;;12.38;77.62
11808;BME280;5961;42.640;23.380;2023-04-30T05:36:12;93830.19;;;12.47;76.86
11808;BME280;5961;42.640;23.380;2023-04-30T05:38:39;93807.44;;;12.34;76.54
11808;BME280;5961;42.640;23.380;2023-04-30T05:41:06;93832.28;;;12.57;76.74
11808;BME280;5961;42.640;23.380;2023-04-30T05:43:34;93821.91;;;12.52;76.42
11808;BME280;5961;42.640;23.380;2023-04-30T05:46:01;93830.19;;;12.66;76.02
11808;BME280;5961;42.640;23.380;2023-04-30T05:48:27;93840.41;;;12.80;75.69
11808;BME280;5961;42.640;23.380;2023-04-30T05:50:54;93833.31;;;12.88;75.64
11808;BME280;5961;42.640;23.380;2023-04-30T05:53:21;93832.97;;;12.89;75.46
11808;BME280;5961;42.640;23.380;2023-04-30T05:55:47;93833.03;;;12.93;75.28
11808;BME280;5961;42.640;23.380;2023-04-30T05:58:14;93833.44;;;12.95;74.85
11808;BME280;5961;42.640;23.380;2023-04-30T06:00:42;93821.59;;;12.92;74.83
11808;BME280;5961;42.640;23.380;2023-04-30T06:03:09;93838.66;;;13.07;74.64
11808;BME280;5961;42.640;23.380;2023-04-30T06:05:35;93835.56;;;13.05;74.57
11808;BME280;5961;42.640;23.380;2023-04-30T06:08:02;93847.56;;;13.14;74.92
11808;BME280;5961;42.640;23.380;2023-04-30T06:10:29;93841.19;;;13.19;75.34
11808;BME280;5961;42.640;23.380;2023-04-30T06:12:56;93845.91;;;13.26;75.65
11808;BME280;5961;42.640;23.380;2023-04-30T06:15:23;93849.34;;;13.26;75.68
11808;BME280;5961;42.640;23.380;2023-04-30T06:17:51;93842.94;;;13.31;76.32
11808;BME280;5961;42.640;23.380;2023-04-30T06:20:17;93839.84;;;13.29;76.50
11808;BME280;5961;42.640;23.380;2023-04-30T06:22:44;93839.09;;;13.28;76.72
11808;BME280;5961;42.640;23.380;2023-04-30T06:25:11;93847.22;;;13.35;76.97
11808;BME280;5961;42.640;23.380;2023-04-30T06:27:38;93860.28;;;13.40;76.48
11808;BME280;5961;42.640;23.380;2023-04-30T06:30:05;93849.22;;;13.42;76.52
11808;BME280;5961;42.640;23.380;2023-04-30T06:32:32;93854.72;;;13.49;75.74
11808;BME280;5961;42.640;23.380;2023-04-30T06:35:00;93847.19;;;13.54;76.10
11808;BME280;5961;42.640;23.380;2023-04-30T06:37:27;93844.50;;;13.54;75.88
11808;BME280;5961;42.640;23.380;2023-04-30T06:39:54;93855.41;;;13.65;75.58
11808;BME280;5961;42.640;23.380;2023-04-30T06:42:20;93857.59;;;13.59;74.88
11808;BME280;5961;42.640;23.380;2023-04-30T06:44:47;93860.81;;;13.68;74.58
11808;BME280;5961;42.640;23.380;2023-04-30T06:47:13;93863.88;;;13.70;74.92
11808;BME280;5961;42.640;23.380;2023-04-30T06:49:40;93853.25;;;13.97;100.00
11808;BME280;5961;42.640;23.380;2023-04-30T06:52:08;93853.84;;;14.09;100.00
11808;BME280;5961;42.640;23.380;2023-04-30T06:54:35;93845.03;;;14.32;100.00
11808;BME280;5961;42.640;23.380;2023-04-30T06:57:01;93867.63;;;14.34;87.34
11808;BME280;5961;42.640;23.380;2023-04-30T06:59:28;93874.91;;;14.37;77.87
11808;BME280;5961;42.640;23.380;2023-04-30T07:01:55;93872.00;;;14.46;75.61
11808;BME280;5961;42.640;23.380;2023-04-30T07:04:22;93877.91;;;14.58;74.47
11808;BME280;5961;42.640;23.380;2023-04-30T07:06:49;93876.09;;;14.66;73.58
11808;BME280;5961;42.640;23.380;2023-04-30T07:09:17;93865.06;;;14.67;73.43
11808;BME280;5961;42.640;23.380;2023-04-30T07:11:44;93870.13;;;14.76;73.30
11808;BME280;5961;42.640;23.380;2023-04-30T07:14:11;93877.50;;;14.82;73.44
11808;BME280;5961;42.640;23.380;2023-04-30T07:16:38;93872.47;;;14.81;73.41
11808;BME280;5961;42.640;23.380;2023-04-30T07:19:04;93873.31;;;14.85;73.31
11808;BME280;5961;42.640;23.380;2023-04-30T07:21:31;93871.81;;;14.88;73.40
11808;BME280;5961;42.640;23.380;2023-04-30T07:23:58;93883.75;;;14.94;72.99
11808;BME280;5961;42.640;23.380;2023-04-30T07:26:26;93872.63;;;14.92;72.92
11808;BME280;5961;42.640;23.380;2023-04-30T07:28:52;93875.41;;;14.99;72.65
11808;BME280;5961;42.640;23.380;2023-04-30T07:31:19;93880.41;;;15.00;72.86
11808;BME280;5961;42.640;23.380;2023-04-30T07:33:46;93883.06;;;15.00;73.12
11808;BME280;5961;42.640;23.380;2023-04-30T07:36:14;93874.69;;;15.02;72.82
11808;BME280;5961;42.640;23.380;2023-04-30T07:38:41;93878.88;;;15.03;72.68
11808;BME280;5961;42.640;23.380;2023-04-30T07:41:08;93878.88;;;15.03;71.96
11808;BME280;5961;42.640;23.380;2023-04-30T07:43:36;93877.38;;;15.02;72.12
11808;BME280;5961;42.640;23.380;2023-04-30T07:46:03;93874.94;;;14.93;72.65
11808;BME280;5961;42.640;23.380;2023-04-30T07:48:29;93886.91;;;15.03;72.29
11808;BME280;5961;42.640;23.380;2023-04-30T07:50:56;93876.16;;;14.96;72.03
11808;BME280;5961;42.640;23.380;2023-04-30T07:53:23;93885.41;;;15.02;72.33
11808;BME280;5961;42.640;23.380;2023-04-30T07:55:49;93894.59;;;15.04;72.18
11808;BME280;5961;42.640;23.380;2023-04-30T07:58:16;93888.09;;;15.05;71.69
11808;BME280;5961;42.640;23.380;2023-04-30T08:00:44;93877.75;;;15.04;71.31
11808;BME280;5961;42.640;23.380;2023-04-30T08:03:11;93887.75;;;15.07;69.69
11808;BME280;5961;42.640;23.380;2023-04-30T08:05:37;93885.47;;;15.09;69.31
11808;BME280;5961;42.640;23.380;2023-04-30T08:08:05;93902.34;;;15.13;69.21
11808;BME280;5961;42.640;23.380;2023-04-30T08:10:32;93878.59;;;15.08;68.80
11808;BME280;5961;42.640;23.380;2023-04-30T08:12:59;93895.88;;;15.14;68.70
11808;BME280;5961;42.640;23.380;2023-04-30T08:15:26;93896.66;;;15.18;67.98
11808;BME280;5961;42.640;23.380;2023-04-30T08:17:54;93892.50;;;15.20;68.01
11808;BME280;5961;42.640;23.380;2023-04-30T08:20:20;93896.00;;;15.24;68.87
11808;BME280;5961;42.640;23.380;2023-04-30T08:22:48;93895.63;;;15.26;67.43
11808;BME280;5961;42.640;23.380;2023-04-30T08:25:15;93900.28;;;15.29;67.16
11808;BME280;5961;42.640;23.380;2023-04-30T08:27:42;93905.66;;;15.32;66.99
11808;BME280;5961;42.640;23.380;2023-04-30T08:30:09;93895.31;;;15.31;66.68
11808;BME280;5961;42.640;23.380;2023-04-30T08:32:36;93901.88;;;15.37;67.26
11808;BME280;5961;42.640;23.380;2023-04-30T08:35:05;93903.06;;;15.39;67.02
11808;BME280;5961;42.640;23.380;2023-04-30T08:37:33;93909.59;;;15.42;67.13
11808;BME280;5961;42.640;23.380;2023-04-30T08:39:59;93897.66;;;15.36;67.29
11808;BME280;5961;42.640;23.380;2023-04-30T08:42:30;93899.66;;;15.43;67.04
11808;BME280;5961;42.640;23.380;2023-04-30T08:44:59;93890.44;;;15.40;66.73
11808;BME280;5961;42.640;23.380;2023-04-30T08:47:26;93897.44;;;15.48;66.96
11808;BME280;5961;42.640;23.380;2023-04-30T08:49:53;93900.56;;;15.54;67.15
11808;BME280;5961;42.640;23.380;2023-04-30T08:52:21;93904.41;;;15.56;65.72
11808;BME280;5961;42.640;23.380;2023-04-30T08:54:51;93888.72;;;15.55;65.38
11808;BME280;5961;42.640;23.380;2023-04-30T08:57:19;93891.78;;;15.57;65.52
11808;BME280;5961;42.640;23.380;2023-04-30T08:59:45;93889.56;;;15.62;66.15
11808;BME280;5961;42.640;23.380;2023-04-30T09:02:12;93885.34;;;15.61;66.55
11808;BME280;5961;42.640;23.380;2023-04-30T09:04:39;93880.06;;;15.68;66.15
11808;BME280;5961;42.640;23.380;2023-04-30T09:07:06;93885.34;;;15.61;65.00
11808;BME280;5961;42.640;23.380;2023-04-30T09:09:38;93872.31;;;15.60;64.75
11808;BME280;5961;42.640;23.380;2023-04-30T09:12:12;93881.94;;;15.64;65.03
11808;BME280;5961;42.640;23.380;2023-04-30T09:14:39;93875.44;;;15.65;63.51
11808;BME280;5961;42.640;23.380;2023-04-30T09:17:06;93879.25;;;15.64;63.37
11808;BME280;5961;42.640;23.380;2023-04-30T09:19:34;93855.50;;;15.63;63.64
11808;BME280;5961;42.640;23.380;2023-04-30T09:22:19;93878.59;;;15.74;62.43
11808;BME280;5961;42.640;23.380;2023-04-30T09:24:49;93864.44;;;15.77;61.87
11808;BME280;5961;42.640;23.380;2023-04-30T09:27:17;93864.19;;;15.86;61.87
11808;BME280;5961;42.640;23.380;2023-04-30T09:29:44;93851.97;;;15.92;61.17
11808;BME280;5961;42.640;23.380;2023-04-30T09:32:11;93850.00;;;15.85;61.10
11808;BME280;5961;42.640;23.380;2023-04-30T09:34:38;93855.94;;;16.09;60.50
11808;BME280;5961;42.640;23.380;2023-04-30T09:37:07;93848.75;;;16.20;59.46
11808;BME280;5961;42.640;23.380;2023-04-30T09:39:45;93846.50;;;16.29;59.00
11808;BME280;5961;42.640;23.380;2023-04-30T09:42:13;93850.38;;;16.35;59.16
11808;BME280;5961;42.640;23.380;2023-04-30T09:44:40;93843.19;;;16.42;59.29
11808;BME280;5961;42.640;23.380;2023-04-30T09:47:10;93834.03;;;16.51;59.08
11808;BME280;5961;42.640;23.380;2023-04-30T09:49:40;93831.03;;;16.59;58.00
11808;BME280;5961;42.640;23.380;2023-04-30T09:52:07;93829.94;;;16.64;56.17
11808;BME280;5961;42.640;23.380;2023-04-30T09:54:37;93819.59;;;16.66;57.44
11808;BME280;5961;42.640;23.380;2023-04-30T09:57:09;93815.84;;;16.81;57.13
11808;BME280;5961;42.640;23.380;2023-04-30T09:59:37;93814.72;;;16.85;56.25
11808;BME280;5961;42.640;23.380;2023-04-30T10:02:08;93797.44;;;16.79;55.60
11808;BME280;5961;42.640;23.380;2023-04-30T10:04:36;93822.03;;;16.95;56.58
11808;BME280;5961;42.640;23.380;2023-04-30T10:07:05;93817.44;;;16.96;55.06
11808;BME280;5961;42.640;23.380;2023-04-30T10:09:38;93809.44;;;17.03;55.14
11808;BME280;5961;42.640;23.380;2023-04-30T10:12:10;93809.81;;;17.05;55.71
11808;BME280;5961;42.640;23.380;2023-04-30T10:14:44;93805.97;;;17.06;56.44
11808;BME280;5961;42.640;23.380;2023-04-30T10:17:13;93803.72;;;17.15;57.03
11808;BME280;5961;42.640;23.380;2023-04-30T10:19:45;93802.97;;;17.22;56.94
11808;BME280;5961;42.640;23.380;2023-04-30T10:22:13;93799.53;;;17.25;55.60
11808;BME280;5961;42.640;23.380;2023-04-30T10:24:41;93809.13;;;17.33;55.52
11808;BME280;5961;42.640;23.380;2023-04-30T10:27:09;93803.78;;;17.36;55.04
11808;BME280;5961;42.640;23.380;2023-04-30T10:29:36;93796.09;;;17.38;54.36
11808;BME280;5961;42.640;23.380;2023-04-30T10:32:04;93763.78;;;17.07;53.66
11808;BME280;5961;42.640;23.380;2023-04-30T10:34:37;93812.97;;;17.28;54.30
11808;BME280;5961;42.640;23.380;2023-04-30T10:37:10;93830.19;;;17.17;55.92
11808;BME280;5961;42.640;23.380;2023-04-30T10:39:40;93851.22;;;17.00;57.49
11808;BME280;5961;42.640;23.380;2023-04-30T10:42:08;93828.81;;;16.72;59.76
11808;BME280;5961;42.640;23.380;2023-04-30T10:44:36;93869.28;;;16.49;60.96
11808;BME280;5961;42.640;23.380;2023-04-30T10:47:05;93860.66;;;16.26;64.81
11808;BME280;5961;42.640;23.380;2023-04-30T10:49:32;93860.19;;;16.13;66.74
11808;BME280;5961;42.640;23.380;2023-04-30T10:52:00;93853.09;;;15.91;66.60
11808;BME280;5961;42.640;23.380;2023-04-30T10:54:28;93851.06;;;15.77;65.03
11808;BME280;5961;42.640;23.380;2023-04-30T10:57:08;93846.72;;;15.66;64.63
11808;BME280;5961;42.640;23.380;2023-04-30T10:59:36;93837.22;;;15.72;64.14
11808;BME280;5961;42.640;23.380;2023-04-30T11:02:04;93844.94;;;15.77;66.29
11808;BME280;5961;42.640;23.380;2023-04-30T11:04:31;93750.38;;;15.36;67.82
11808;BME280;5961;42.640;23.380;2023-04-30T11:07:06;93832.59;;;16.09;68.33
11808;BME280;5961;42.640;23.380;2023-04-30T11:09:35;93832.31;;;16.25;64.29
11808;BME280;5961;42.640;23.380;2023-04-30T11:12:03;93833.66;;;16.52;64.69
11808;BME280;5961;42.640;23.380;2023-04-30T11:14:31;93833.03;;;16.69;64.12
11808;BME280;5961;42.640;23.380;2023-04-30T11:16:58;93838.06;;;16.78;63.90
11808;BME280;5961;42.640;23.380;2023-04-30T11:19:28;93835.81;;;16.90;63.00
11808;BME280;5961;42.640;23.380;2023-04-30T11:22:14;93838.59;;;17.08;62.01
11808;BME280;5961;42.640;23.380;2023-04-30T11:24:52;93822.88;;;17.14;61.00
11808;BME280;5961;42.640;23.380;2023-04-30T11:27:19;93826.38;;;17.25;61.75
11808;BME280;5961;42.640;23.380;2023-04-30T11:29:48;93824.47;;;17.32;61.50
11808;BME280;5961;42.640;23.380;2023-04-30T11:32:15;93826.06;;;17.40;62.55
11808;BME280;5961;42.640;23.380;2023-04-30T11:34:44;93810.66;;;17.30;56.27
11808;BME280;5961;42.640;23.380;2023-04-30T11:37:12;93826.81;;;17.41;55.36
11808;BME280;5961;42.640;23.380;2023-04-30T11:39:40;93829.16;;;17.46;55.34
11808;BME280;5961;42.640;23.380;2023-04-30T11:42:07;93824.94;;;17.52;57.02
11808;BME280;5961;42.640;23.380;2023-04-30T11:44:34;93813.03;;;17.53;57.50
11808;BME280;5961;42.640;23.380;2023-04-30T11:47:03;93817.31;;;17.58;59.21
11808;BME280;5961;42.640;23.380;2023-04-30T11:49:30;93816.94;;;17.66;59.49
11808;BME280;5961;42.640;23.380;2023-04-30T11:51:59;93826.16;;;17.90;60.42
11808;BME280;5961;42.640;23.380;2023-04-30T11:54:26;93824.66;;;18.06;60.55
11808;BME280;5961;42.640;23.380;2023-04-30T11:56:52;93823.13;;;18.09;60.39
11808;BME280;5961;42.640;23.380;2023-04-30T11:59:25;93825.81;;;18.27;60.29
11808;BME280;5961;42.640;23.380;2023-04-30T12:01:52;93823.50;;;18.50;60.16
11808;BME280;5961;42.640;23.380;2023-04-30T12:04:19;93818.47;;;18.73;61.40
11808;BME280;5961;42.640;23.380;2023-04-30T12:06:46;93821.53;;;18.68;60.79
11808;BME280;5961;42.640;23.380;2023-04-30T12:09:14;93823.03;;;18.90;59.79
11808;BME280;5961;42.640;23.380;2023-04-30T12:11:41;93812.97;;;19.08;59.19
11808;BME280;5961;42.640;23.380;2023-04-30T12:14:09;93776.50;;;18.86;59.67
11808;BME280;5961;42.640;23.380;2023-04-30T12:16:40;93807.50;;;19.30;58.88
11808;BME280;5961;42.640;23.380;2023-04-30T12:19:08;93812.56;;;19.17;60.27
11808;BME280;5961;42.640;23.380;2023-04-30T12:21:35;93821.44;;;19.10;58.52
11808;BME280;5961;42.640;23.380;2023-04-30T12:24:03;93819.94;;;18.95;57.63
11808;BME280;5961;42.640;23.380;2023-04-30T12:26:35;93826.16;;;18.75;58.16
11808;BME280;5961;42.640;23.380;2023-04-30T12:29:04;93835.41;;;18.52;57.97
11808;BME280;5961;42.640;23.380;2023-04-30T12:31:31;93843.09;;;18.33;58.83
11808;BME280;5961;42.640;23.380;2023-04-30T12:34:02;93844.63;;;18.13;60.30
11808;BME280;5961;42.640;23.380;2023-04-30T12:36:30;93852.31;;;17.96;64.53
11808;BME280;5961;42.640;23.380;2023-04-30T12:39:07;93835.75;;;17.80;68.05
11808;BME280;5961;42.640;23.380;2023-04-30T12:41:39;93825.00;;;17.66;70.44
11808;BME280;5961;42.640;23.380;2023-04-30T12:44:16;93839.88;;;17.53;72.58
11808;BME280;5961;42.640;23.380;2023-04-30T12:46:44;93839.84;;;17.39;77.24
11808;BME280;5961;42.640;23.380;2023-04-30T12:49:11;93842.88;;;17.27;77.34
11808;BME280;5961;42.640;23.380;2023-04-30T12:51:41;93826.69;;;17.06;76.59
11808;BME280;5961;42.640;23.380;2023-04-30T12:54:08;93844.72;;;17.09;76.27
11808;BME280;5961;42.640;23.380;2023-04-30T12:56:34;93845.09;;;17.04;76.50
11808;BME280;5961;42.640;23.380;2023-04-30T12:59:13;93844.28;;;16.96;75.53
11808;BME280;5961;42.640;23.380;2023-04-30T13:01:43;93834.28;;;16.89;75.91
11808;BME280;5961;42.640;23.380;2023-04-30T13:04:10;93816.66;;;16.95;75.13